Time;durP1;ratioP1;P1;durP2;ratioP2;P2;SDS_P1;SDS_P2;PMS_P1;PMS_P2;Temp;Humidity;BMP_temperature;BMP_pressure;BME280_temperature;BME280_humidity;BME280_pressure;Samples;Min_cycle;Max_cycle;Signal;HPM_P1;HPM_P2
2022/03/27 00:00:23;;;;;;;5.00;3.40;;;9.50;99.90;;;;;;4904164;29;20043;-86
2022/03/27 00:02:49;;;;;;;6.82;3.58;;;9.50;99.90;;;;;;4917506;29;20051;-85
2022/03/27 00:05:14;;;;;;;5.72;3.55;;;9.40;99.90;;;;;;4902015;29;20036;-85
2022/03/27 00:07:40;;;;;;;5.95;3.47;;;9.40;99.90;;;;;;4917703;29;20497;-86
2022/03/27 00:10:06;;;;;;;4.82;3.20;;;9.30;99.90;;;;;;4899991;29;20055;-85
2022/03/27 00:12:32;;;;;;;6.63;3.78;;;9.20;99.90;;;;;;4909180;29;20039;-86
2022/03/27 00:14:58;;;;;;;7.50;4.00;;;9.20;99.90;;;;;;4918798;29;20164;-86
2022/03/27 00:17:23;;;;;;;5.90;2.88;;;9.10;99.90;;;;;;4915502;29;20036;-85
2022/03/27 00:19:49;;;;;;;6.70;3.67;;;9.10;99.90;;;;;;4931367;29;20039;-86
2022/03/27 00:22:15;;;;;;;5.28;3.28;;;9.10;99.90;;;;;;4913748;29;20051;-86
2022/03/27 00:24:41;;;;;;;5.03;3.53;;;9.10;99.90;;;;;;4914258;29;20043;-86
2022/03/27 00:27:07;;;;;;;6.60;3.75;;;9.10;99.90;;;;;;4899006;29;20042;-86
2022/03/27 00:29:33;;;;;;;5.38;3.22;;;9.10;99.90;;;;;;4912775;29;20036;-86
2022/03/27 00:31:58;;;;;;;6.05;3.75;;;9.00;99.90;;;;;;4914181;29;20027;-86
2022/03/27 00:34:25;;;;;;;4.78;2.95;;;9.00;99.90;;;;;;4910118;29;20096;-86
2022/03/27 00:36:51;;;;;;;4.97;2.60;;;9.00;99.90;;;;;;4900585;29;20046;-86
2022/03/27 00:39:16;;;;;;;5.30;3.17;;;8.90;99.90;;;;;;4913745;29;20492;-86
2022/03/27 00:41:45;;;;;;;4.88;2.90;;;8.90;99.90;;;;;;4897519;29;20111;-86
2022/03/27 00:44:11;;;;;;;4.28;2.78;;;8.90;99.90;;;;;;4913146;29;20067;-86
2022/03/27 00:46:37;;;;;;;4.57;2.72;;;8.80;99.90;;;;;;4899045;29;20020;-85
2022/03/27 00:49:03;;;;;;;5.65;2.85;;;8.80;99.90;;;;;;4930496;29;20104;-85
2022/03/27 00:51:29;;;;;;;5.90;3.50;;;8.80;99.90;;;;;;4913624;29;20495;-86
2022/03/27 00:53:54;;;;;;;5.03;3.00;;;8.70;99.90;;;;;;4898592;29;20039;-85
2022/03/27 00:56:20;;;;;;;5.50;3.05;;;8.70;99.90;;;;;;4899430;29;20111;-86
2022/03/27 00:58:45;;;;;;;6.35;3.25;;;8.60;99.90;;;;;;4898598;29;20385;-86
2022/03/27 01:01:25;;;;;;;5.65;3.08;;;8.60;99.90;;;;;;4895364;29;20131;-86
2022/03/27 01:03:54;;;;;;;4.25;2.78;;;8.50;99.90;;;;;;4913605;29;20048;-86
2022/03/27 01:06:36;;;;;;;6.15;3.58;;;8.50;99.90;;;;;;4924874;29;20055;-85
2022/03/27 01:11:49;;;;;;;5.63;3.28;;;8.40;99.90;;;;;;4912166;29;20130;-86
2022/03/27 01:14:22;;;;;;;5.93;3.35;;;8.30;99.90;;;;;;4910036;29;20167;-86
2022/03/27 01:16:58;;;;;;;7.40;3.22;;;8.30;99.90;;;;;;4884636;29;20051;-85
2022/03/27 01:19:26;;;;;;;6.15;3.15;;;8.30;99.90;;;;;;4926836;29;20107;-85
2022/03/27 01:21:51;;;;;;;6.45;2.95;;;8.30;99.90;;;;;;4903040;29;20043;-86
2022/03/27 01:24:18;;;;;;;7.70;3.65;;;8.40;99.90;;;;;;4910745;29;21584;-85
2022/03/27 01:26:44;;;;;;;5.53;3.40;;;8.40;99.90;;;;;;4915908;29;20035;-85
2022/03/27 01:29:10;;;;;;;7.30;3.55;;;8.40;99.90;;;;;;4898159;29;20055;-86
2022/03/27 01:31:36;;;;;;;5.72;3.30;;;8.40;99.90;;;;;;4916472;29;20473;-85
2022/03/27 01:34:03;;;;;;;6.55;3.00;;;8.40;99.90;;;;;;4919725;29;20126;-86
2022/03/27 01:36:34;;;;;;;4.82;3.00;;;8.30;99.90;;;;;;4901879;29;20095;-86
2022/03/27 01:39:01;;;;;;;7.05;2.83;;;8.30;99.90;;;;;;4903677;29;20044;-85
2022/03/27 01:41:27;;;;;;;6.00;3.35;;;8.30;99.90;;;;;;4910914;29;20127;-86
2022/03/27 01:43:53;;;;;;;6.90;3.38;;;8.30;99.90;;;;;;4931647;29;20131;-86
2022/03/27 01:46:19;;;;;;;6.25;3.47;;;8.30;99.90;;;;;;4916693;29;20124;-86
2022/03/27 01:48:45;;;;;;;5.40;3.00;;;8.20;99.90;;;;;;4900051;29;20039;-85
2022/03/27 01:51:10;;;;;;;5.75;3.25;;;8.20;99.90;;;;;;4920567;29;20036;-86
2022/03/27 01:53:38;;;;;;;6.93;3.75;;;8.10;99.90;;;;;;4916013;29;20047;-86
2022/03/27 01:56:05;;;;;;;7.78;3.40;;;8.10;99.90;;;;;;4917330;29;20478;-85
2022/03/27 01:58:30;;;;;;;6.50;3.88;;;8.10;99.90;;;;;;4915771;29;20051;-85
2022/03/27 02:00:56;;;;;;;6.85;3.47;;;8.10;99.90;;;;;;4902185;29;20386;-86
2022/03/27 02:03:27;;;;;;;6.18;3.58;;;8.10;99.90;;;;;;4903906;29;20422;-87
2022/03/27 02:05:53;;;;;;;5.85;3.25;;;8.00;99.90;;;;;;4918667;29;20059;-86
2022/03/27 02:08:19;;;;;;;6.15;3.03;;;8.00;99.90;;;;;;4903394;29;20046;-85
2022/03/27 02:10:45;;;;;;;7.22;3.70;;;7.90;99.90;;;;;;4908358;29;20254;-86
2022/03/27 02:13:15;;;;;;;6.65;3.67;;;7.90;99.90;;;;;;4913629;29;20032;-85
2022/03/27 02:15:41;;;;;;;6.80;3.35;;;7.80;99.90;;;;;;4934405;29;20093;-85
2022/03/27 02:18:09;;;;;;;6.10;3.28;;;7.80;99.90;;;;;;4898288;29;20156;-85
2022/03/27 02:20:35;;;;;;;6.03;3.03;;;7.70;99.90;;;;;;4899647;29;20063;-86
2022/03/27 02:23:01;;;;;;;6.25;3.38;;;7.70;99.90;;;;;;4915063;29;20044;-85
2022/03/27 02:25:26;;;;;;;5.75;3.50;;;7.60;99.90;;;;;;4919788;29;20047;-86
2022/03/27 02:27:52;;;;;;;5.43;3.10;;;7.60;99.90;;;;;;4900744;29;20572;-85
2022/03/27 02:30:19;;;;;;;7.47;3.78;;;7.50;99.90;;;;;;4902485;29;20126;-86
2022/03/27 02:32:46;;;;;;;5.88;3.38;;;7.50;99.90;;;;;;4915618;29;20040;-85
2022/03/27 02:35:12;;;;;;;5.65;3.42;;;7.40;99.90;;;;;;4911282;29;20071;-86
2022/03/27 02:37:38;;;;;;;6.63;3.45;;;7.40;99.90;;;;;;4918267;29;20412;-86
2022/03/27 02:40:05;;;;;;;9.52;3.97;;;7.40;99.90;;;;;;4902145;29;20040;-85
2022/03/27 02:42:31;;;;;;;8.52;3.95;;;7.30;99.90;;;;;;4915619;29;20099;-85
2022/03/27 02:44:56;;;;;;;5.47;2.85;;;7.30;99.90;;;;;;4900368;29;20115;-85
2022/03/27 02:47:22;;;;;;;7.68;3.38;;;7.20;99.90;;;;;;4902402;29;20032;-86
2022/03/27 02:49:48;;;;;;;6.05;3.33;;;7.20;99.90;;;;;;4903222;29;20044;-85
2022/03/27 02:52:13;;;;;;;8.00;3.50;;;7.20;99.90;;;;;;4918075;29;20051;-85
2022/03/27 02:54:39;;;;;;;6.95;3.47;;;7.20;99.90;;;;;;4930986;29;20043;-85
2022/03/27 02:57:05;;;;;;;6.57;3.55;;;7.20;99.90;;;;;;4904355;29;20027;-85
2022/03/27 02:59:30;;;;;;;7.93;3.42;;;7.10;99.90;;;;;;4902459;29;20457;-85
2022/03/27 03:01:56;;;;;;;7.40;3.00;;;7.10;99.90;;;;;;4915603;29;20036;-85
2022/03/27 03:04:22;;;;;;;6.65;3.20;;;7.10;99.90;;;;;;4900446;29;20035;-86
2022/03/27 03:06:48;;;;;;;8.05;3.50;;;7.00;99.90;;;;;;4917427;29;20052;-86
2022/03/27 03:09:14;;;;;;;6.10;3.10;;;7.00;99.90;;;;;;4919973;29;20043;-85
2022/03/27 03:11:40;;;;;;;8.23;3.13;;;6.90;99.90;;;;;;4901146;29;20047;-86
2022/03/27 03:14:06;;;;;;;6.22;3.08;;;6.90;99.90;;;;;;4900086;29;20150;-85
2022/03/27 03:16:34;;;;;;;6.35;2.65;;;6.80;99.90;;;;;;4916230;29;20151;-85
2022/03/27 03:18:59;;;;;;;8.13;3.45;;;6.70;99.90;;;;;;4913118;29;20520;-86
2022/03/27 03:21:26;;;;;;;7.15;3.45;;;6.70;99.90;;;;;;4902554;29;20039;-86
2022/03/27 03:23:52;;;;;;;5.80;2.92;;;6.60;99.90;;;;;;4897485;29;20055;-86
2022/03/27 03:26:18;;;;;;;7.88;2.95;;;6.60;99.90;;;;;;4900624;29;20048;-85
2022/03/27 03:28:43;;;;;;;6.28;3.15;;;6.60;99.90;;;;;;4900990;29;20544;-85
2022/03/27 03:31:09;;;;;;;9.18;3.70;;;6.50;99.90;;;;;;4894527;29;20051;-86
2022/03/27 03:33:34;;;;;;;6.18;2.88;;;6.40;99.90;;;;;;4915242;29;20040;-85
2022/03/27 03:36:00;;;;;;;6.95;3.03;;;6.40;99.90;;;;;;4898255;29;20043;-85
2022/03/27 03:38:26;;;;;;;8.40;3.22;;;6.40;99.90;;;;;;4899538;29;20088;-85
2022/03/27 03:40:52;;;;;;;6.13;2.38;;;6.30;99.90;;;;;;4896620;29;20071;-85
2022/03/27 03:43:20;;;;;;;6.13;2.78;;;6.30;99.90;;;;;;4901509;29;20534;-85
2022/03/27 03:45:46;;;;;;;7.22;2.85;;;6.30;99.90;;;;;;4931877;29;20485;-85
2022/03/27 03:48:12;;;;;;;6.78;3.05;;;6.20;99.90;;;;;;4930094;29;20481;-85
2022/03/27 03:50:38;;;;;;;6.32;2.95;;;6.20;99.90;;;;;;4932973;29;20046;-85
2022/03/27 03:53:04;;;;;;;5.88;2.35;;;6.20;99.90;;;;;;4917277;29;20035;-86
2022/03/27 03:55:31;;;;;;;8.00;3.28;;;6.20;99.90;;;;;;4932203;29;20070;-85
2022/03/27 03:57:57;;;;;;;5.95;3.00;;;6.10;99.90;;;;;;4915978;29;20150;-85
2022/03/27 04:00:23;;;;;;;8.15;2.72;;;6.10;99.90;;;;;;4900011;29;20039;-85
2022/03/27 04:02:49;;;;;;;9.50;2.97;;;6.00;99.90;;;;;;4934885;29;20465;-86
2022/03/27 04:05:15;;;;;;;7.72;2.80;;;6.00;99.90;;;;;;4915404;29;20043;-85
2022/03/27 04:07:41;;;;;;;8.93;3.50;;;6.00;99.90;;;;;;4934248;29;20062;-85
2022/03/27 04:10:07;;;;;;;9.00;3.35;;;6.00;99.90;;;;;;4915019;29;20370;-85
2022/03/27 04:12:32;;;;;;;9.70;2.75;;;6.00;99.90;;;;;;4917054;29;20044;-85
2022/03/27 04:14:58;;;;;;;9.55;3.50;;;5.90;99.90;;;;;;4916295;29;20048;-85
2022/03/27 04:17:24;;;;;;;10.55;3.55;;;5.90;99.90;;;;;;4915446;29;20047;-85
2022/03/27 04:19:49;;;;;;;6.97;3.05;;;5.90;99.90;;;;;;4916280;29;20047;-85
2022/03/27 04:22:15;;;;;;;8.35;3.25;;;5.90;99.90;;;;;;4910947;29;20500;-85
2022/03/27 04:24:41;;;;;;;7.03;2.50;;;5.80;99.90;;;;;;4919153;29;20122;-85
2022/03/27 04:27:07;;;;;;;9.65;3.08;;;5.80;99.90;;;;;;4900183;29;20032;-86
2022/03/27 04:29:32;;;;;;;7.25;3.17;;;5.80;99.90;;;;;;4914943;29;20054;-85
2022/03/27 04:31:58;;;;;;;10.57;3.10;;;5.80;99.90;;;;;;4916614;29;20047;-85
2022/03/27 04:34:24;;;;;;;8.90;3.65;;;5.80;99.90;;;;;;4899954;29;20445;-85
2022/03/27 04:36:49;;;;;;;8.90;3.38;;;5.80;99.90;;;;;;4915537;29;20047;-86
2022/03/27 04:39:15;;;;;;;7.63;2.95;;;5.70;99.90;;;;;;4917020;29;20042;-85
2022/03/27 04:41:41;;;;;;;12.60;3.25;;;5.70;99.90;;;;;;4916261;29;20575;-86
2022/03/27 04:44:07;;;;;;;7.00;2.47;;;5.80;99.90;;;;;;4919798;29;20118;-85
2022/03/27 04:46:33;;;;;;;8.80;3.80;;;5.80;99.90;;;;;;4933114;29;20042;-85
2022/03/27 04:48:58;;;;;;;9.18;2.83;;;5.70;99.90;;;;;;4898484;29;20044;-85
2022/03/27 04:51:24;;;;;;;12.05;4.28;;;5.70;99.90;;;;;;4898942;29;20050;-85
2022/03/27 04:53:50;;;;;;;10.95;3.75;;;5.70;99.90;;;;;;4932093;29;20051;-85
2022/03/27 04:56:17;;;;;;;10.43;3.33;;;5.70;99.90;;;;;;4917691;29;20043;-85
2022/03/27 04:58:43;;;;;;;11.02;3.58;;;5.70;99.90;;;;;;4906739;29;20035;-85
2022/03/27 05:01:10;;;;;;;9.63;3.90;;;5.60;99.90;;;;;;4916430;29;20048;-86
2022/03/27 05:03:36;;;;;;;10.20;3.50;;;5.60;99.90;;;;;;4899539;29;20035;-85
2022/03/27 05:06:02;;;;;;;8.70;3.28;;;5.60;99.90;;;;;;4915105;29;20102;-86
2022/03/27 05:08:27;;;;;;;9.05;3.90;;;5.60;99.90;;;;;;4898307;29;20040;-85
2022/03/27 05:10:53;;;;;;;9.52;3.50;;;5.60;99.90;;;;;;4897844;29;20127;-85
2022/03/27 05:13:19;;;;;;;11.30;4.47;;;5.60;99.90;;;;;;4916288;29;20513;-85
2022/03/27 05:15:45;;;;;;;13.20;3.70;;;5.60;99.90;;;;;;4899447;29;20056;-85
2022/03/27 05:18:11;;;;;;;9.43;3.15;;;5.60;99.90;;;;;;4917113;29;20473;-85
2022/03/27 05:20:41;;;;;;;8.98;3.70;;;5.50;99.90;;;;;;4913669;29;20039;-85
2022/03/27 05:23:08;;;;;;;8.68;3.47;;;5.60;99.90;;;;;;4911998;29;20079;-85
2022/03/27 05:25:40;;;;;;;10.23;3.05;;;5.50;99.90;;;;;;4898504;29;20087;-85
2022/03/27 05:28:07;;;;;;;9.95;3.13;;;5.50;99.90;;;;;;4897487;29;20049;-86
2022/03/27 05:30:33;;;;;;;13.45;3.35;;;5.50;99.90;;;;;;4933836;29;20035;-84
2022/03/27 05:32:59;;;;;;;12.30;4.07;;;5.50;99.90;;;;;;4914708;29;20119;-85
2022/03/27 05:35:25;;;;;;;9.40;3.40;;;5.50;99.90;;;;;;4894902;29;20039;-85
2022/03/27 05:37:52;;;;;;;12.00;4.18;;;5.50;99.90;;;;;;4909304;29;20047;-84
2022/03/27 05:40:19;;;;;;;17.88;4.30;;;5.50;99.90;;;;;;4915132;29;20040;-85
2022/03/27 05:42:45;;;;;;;7.57;3.30;;;5.50;99.90;;;;;;4898792;29;20618;-85
2022/03/27 05:45:11;;;;;;;8.57;3.38;;;5.50;99.90;;;;;;4930664;29;20040;-84
2022/03/27 05:47:42;;;;;;;9.32;3.50;;;5.50;99.90;;;;;;4900087;29;20098;-85
2022/03/27 05:50:10;;;;;;;10.20;4.00;;;5.50;99.90;;;;;;4905613;29;20047;-85
2022/03/27 05:52:36;;;;;;;10.05;3.53;;;5.60;99.90;;;;;;4931774;29;20167;-85
2022/03/27 05:55:02;;;;;;;16.25;4.25;;;5.60;99.90;;;;;;4895788;29;20082;-85
2022/03/27 05:57:27;;;;;;;8.98;3.20;;;5.60;99.90;;;;;;4920805;29;20039;-86
2022/03/27 05:59:53;;;;;;;13.00;4.90;;;5.60;99.90;;;;;;4932559;29;20051;-85
2022/03/27 06:02:18;;;;;;;11.45;3.45;;;5.70;99.90;;;;;;4901026;29;20039;-85
2022/03/27 06:04:44;;;;;;;12.13;3.65;;;5.70;99.90;;;;;;4898564;29;20058;-85
2022/03/27 06:07:10;;;;;;;11.20;3.95;;;5.80;99.90;;;;;;4914154;29;20125;-85
2022/03/27 06:09:36;;;;;;;11.15;3.45;;;5.80;99.90;;;;;;4896206;29;20556;-85
2022/03/27 06:12:03;;;;;;;15.73;4.13;;;5.80;99.90;;;;;;4893237;29;20044;-85
2022/03/27 06:14:29;;;;;;;10.77;3.90;;;5.90;99.90;;;;;;4911733;29;20043;-85
2022/03/27 06:16:55;;;;;;;16.23;4.03;;;5.90;99.90;;;;;;4927397;29;20511;-85
2022/03/27 06:19:20;;;;;;;12.15;3.85;;;5.90;99.90;;;;;;4915422;29;20039;-85
2022/03/27 06:21:46;;;;;;;13.45;3.70;;;5.90;99.90;;;;;;4898148;29;20516;-85
2022/03/27 06:24:13;;;;;;;11.88;3.45;;;6.00;99.90;;;;;;4896447;29;20039;-85
2022/03/27 06:26:42;;;;;;;14.93;4.78;;;6.00;99.90;;;;;;4896276;29;20040;-85
2022/03/27 06:29:14;;;;;;;14.00;3.60;;;6.10;99.90;;;;;;4909869;29;20044;-85
2022/03/27 06:31:40;;;;;;;14.52;4.20;;;6.20;99.90;;;;;;4899695;29;20389;-85
2022/03/27 06:34:06;;;;;;;12.15;3.75;;;6.20;99.90;;;;;;4918320;29;20047;-85
2022/03/27 06:36:33;;;;;;;16.80;4.28;;;6.30;99.90;;;;;;4900596;29;20119;-85
2022/03/27 06:38:58;;;;;;;17.00;3.67;;;6.40;99.90;;;;;;4900634;29;20071;-85
2022/03/27 06:41:25;;;;;;;14.57;3.78;;;6.50;99.90;;;;;;4902734;29;20079;-85
2022/03/27 06:43:50;;;;;;;15.00;4.22;;;6.60;99.90;;;;;;4907163;29;20099;-85
2022/03/27 06:46:17;;;;;;;15.30;3.70;;;6.60;99.90;;;;;;4916807;29;20785;-85
2022/03/27 06:48:47;;;;;;;16.05;3.78;;;6.70;99.90;;;;;;4902921;29;20106;-85
2022/03/27 06:51:13;;;;;;;15.95;3.65;;;6.70;99.90;;;;;;4896658;29;20390;-85
2022/03/27 06:53:40;;;;;;;12.65;3.75;;;6.80;99.90;;;;;;4900649;29;20583;-85
2022/03/27 06:56:06;;;;;;;16.58;4.30;;;6.90;99.90;;;;;;4880956;29;20528;-85
2022/03/27 06:58:33;;;;;;;16.83;3.58;;;7.00;99.90;;;;;;4914476;29;20051;-85
2022/03/27 07:03:43;;;;;;;20.58;4.20;;;7.10;99.90;;;;;;4912181;29;20135;-85
2022/03/27 07:06:10;;;;;;;16.50;4.38;;;7.20;99.90;;;;;;4903658;29;20158;-85
2022/03/27 07:08:37;;;;;;;14.00;4.22;;;7.20;99.90;;;;;;4899118;29;20044;-85
2022/03/27 07:11:03;;;;;;;13.70;3.88;;;7.30;99.90;;;;;;4917461;29;20115;-85
2022/03/27 07:13:30;;;;;;;14.30;3.78;;;7.30;99.90;;;;;;4915698;29;20046;-85
2022/03/27 07:15:56;;;;;;;18.92;4.35;;;7.40;99.90;;;;;;4921998;29;20127;-85
2022/03/27 07:18:22;;;;;;;15.13;4.20;;;7.40;99.90;;;;;;4922291;29;20135;-85
2022/03/27 07:20:48;;;;;;;15.10;4.15;;;7.50;99.90;;;;;;4903553;29;20050;-85
2022/03/27 07:23:16;;;;;;;18.65;5.78;;;7.50;99.90;;;;;;4918440;29;20398;-85
2022/03/27 07:25:44;;;;;;;16.58;4.97;;;7.60;99.90;;;;;;4932676;29;20043;-85
2022/03/27 07:28:11;;;;;;;11.70;3.58;;;7.60;99.90;;;;;;4916319;29;20036;-85
2022/03/27 07:30:37;;;;;;;16.90;4.40;;;7.60;99.90;;;;;;4903695;29;20039;-85
2022/03/27 07:33:04;;;;;;;18.90;4.82;;;7.70;99.90;;;;;;4918572;29;20043;-86
2022/03/27 07:35:32;;;;;;;13.48;4.07;;;7.70;99.90;;;;;;4921852;29;20564;-86
2022/03/27 07:37:59;;;;;;;19.02;4.97;;;7.80;99.90;;;;;;4902458;29;20501;-85
2022/03/27 07:40:25;;;;;;;17.35;4.13;;;7.90;99.90;;;;;;4908670;29;20036;-85
2022/03/27 07:42:53;;;;;;;15.00;4.28;;;8.00;99.90;;;;;;4900471;29;20595;-85
2022/03/27 07:45:21;;;;;;;20.63;5.30;;;8.10;99.90;;;;;;4901906;29;20138;-85
2022/03/27 07:47:49;;;;;;;16.15;4.38;;;8.20;99.90;;;;;;4902415;29;20051;-85
2022/03/27 07:50:16;;;;;;;16.92;4.50;;;8.30;99.90;;;;;;4914690;29;20058;-85
2022/03/27 07:52:43;;;;;;;14.18;4.47;;;8.50;99.90;;;;;;4902644;29;20039;-85
2022/03/27 07:55:10;;;;;;;13.98;3.35;;;8.50;99.90;;;;;;4902757;29;20396;-85
2022/03/27 07:57:35;;;;;;;15.02;3.97;;;8.60;99.90;;;;;;4901928;29;20344;-86
2022/03/27 08:00:02;;;;;;;19.52;4.32;;;8.60;99.90;;;;;;4918610;29;20049;-85
2022/03/27 08:02:28;;;;;;;15.95;5.10;;;8.60;99.90;;;;;;4902435;29;20043;-85
2022/03/27 08:04:53;;;;;;;14.30;4.88;;;8.60;99.90;;;;;;4904867;29;20036;-85
2022/03/27 08:07:19;;;;;;;18.10;5.03;;;8.60;99.90;;;;;;4920381;29;20083;-84
2022/03/27 08:09:45;;;;;;;15.18;3.95;;;8.70;99.90;;;;;;4918195;29;20035;-84
2022/03/27 08:12:11;;;;;;;14.50;4.43;;;8.80;99.90;;;;;;4932720;29;20036;-85
2022/03/27 08:14:37;;;;;;;11.00;3.90;;;9.00;99.90;;;;;;4912819;29;20051;-85
2022/03/27 08:17:04;;;;;;;17.58;5.38;;;9.10;99.90;;;;;;4903943;29;20051;-85
2022/03/27 08:19:30;;;;;;;17.48;4.75;;;9.20;99.90;;;;;;4918334;29;20035;-85
2022/03/27 08:21:56;;;;;;;15.82;4.80;;;9.20;99.90;;;;;;4919157;29;20103;-85
2022/03/27 08:24:22;;;;;;;20.73;4.78;;;9.20;99.90;;;;;;4916128;29;20044;-85
2022/03/27 08:26:59;;;;;;;22.10;4.75;;;9.30;99.90;;;;;;4932455;29;20039;-85
2022/03/27 08:29:26;;;;;;;19.35;4.32;;;9.30;99.90;;;;;;4921216;29;20082;-86
2022/03/27 08:31:52;;;;;;;19.25;4.10;;;9.30;99.90;;;;;;4919069;29;20047;-85
2022/03/27 08:34:20;;;;;;;18.17;4.55;;;9.40;99.90;;;;;;4917879;29;20050;-85
2022/03/27 08:36:46;;;;;;;15.95;4.60;;;9.40;99.90;;;;;;4921003;29;20518;-86
2022/03/27 08:39:12;;;;;;;19.33;4.82;;;9.50;99.90;;;;;;4918505;29;20035;-86
2022/03/27 08:41:46;;;;;;;15.98;4.63;;;9.50;99.90;;;;;;4918772;29;20051;-85
2022/03/27 08:44:13;;;;;;;22.80;5.10;;;9.60;99.90;;;;;;4934464;29;20413;-85
2022/03/27 08:46:41;;;;;;;15.52;4.35;;;9.60;99.90;;;;;;4921944;29;20397;-85
2022/03/27 08:49:18;;;;;;;16.23;5.07;;;9.60;99.90;;;;;;4933771;29;20064;-85
2022/03/27 08:52:00;;;;;;;21.55;4.70;;;9.70;99.90;;;;;;4919207;29;20032;-86
2022/03/27 08:54:40;;;;;;;17.48;4.22;;;9.70;99.90;;;;;;4916594;29;20039;-86
2022/03/27 08:57:19;;;;;;;17.98;4.43;;;9.80;99.90;;;;;;4936039;29;20082;-86
2022/03/27 08:59:46;;;;;;;18.23;5.22;;;9.90;99.90;;;;;;4928781;29;20470;-85
2022/03/27 09:02:16;;;;;;;21.20;5.00;;;9.90;99.90;;;;;;4917626;29;20079;-86
2022/03/27 09:04:42;;;;;;;14.38;4.00;;;9.90;99.90;;;;;;4918034;29;20181;-85
2022/03/27 09:07:07;;;;;;;20.65;4.25;;;10.00;99.90;;;;;;4934045;29;20559;-85
2022/03/27 09:09:35;;;;;;;16.00;4.13;;;10.10;99.90;;;;;;4896887;29;20312;-85
2022/03/27 09:12:05;;;;;;;18.27;4.57;;;10.20;99.90;;;;;;4884752;29;20035;-84
2022/03/27 09:14:32;;;;;;;19.33;4.75;;;10.20;99.90;;;;;;4884303;29;20044;-86
2022/03/27 09:17:07;;;;;;;17.42;4.63;;;10.20;99.90;;;;;;4881763;29;20058;-85
2022/03/27 09:19:39;;;;;;;17.13;5.20;;;10.30;99.90;;;;;;4899788;29;20413;-86
2022/03/27 09:22:15;;;;;;;16.15;4.63;;;10.40;99.90;;;;;;4902841;29;20153;-85
2022/03/27 09:24:42;;;;;;;15.82;4.22;;;10.50;99.90;;;;;;4913278;29;20449;-85
2022/03/27 09:27:09;;;;;;;18.10;3.90;;;10.50;99.90;;;;;;4932585;29;20043;-86
2022/03/27 09:30:01;;;;;;;16.23;4.18;;;10.60;99.90;;;;;;4900741;29;20035;-85
2022/03/27 09:32:32;;;;;;;15.35;3.95;;;10.70;99.90;;;;;;4916639;29;20039;-87
2022/03/27 09:34:59;;;;;;;17.33;4.55;;;10.80;99.90;;;;;;4928407;29;20397;-86
2022/03/27 09:37:29;;;;;;;16.98;3.70;;;10.80;99.90;;;;;;4894670;29;20490;-85
2022/03/27 09:39:59;;;;;;;15.85;3.55;;;10.90;99.90;;;;;;4893038;29;20486;-85
2022/03/27 09:42:26;;;;;;;17.00;3.80;;;11.00;99.90;;;;;;4908812;29;20103;-84
2022/03/27 09:45:14;;;;;;;10.48;3.30;;;11.10;99.90;;;;;;4905388;29;20162;-85
2022/03/27 09:47:41;;;;;;;14.70;3.75;;;11.20;99.50;;;;;;4907406;29;20048;-85
2022/03/27 09:50:07;;;;;;;17.85;4.03;;;11.30;99.60;;;;;;4925100;29;20067;-85
2022/03/27 09:52:33;;;;;;;17.73;4.63;;;11.30;98.80;;;;;;4890777;29;20048;-85
2022/03/27 09:55:01;;;;;;;19.42;3.60;;;11.40;98.00;;;;;;4914384;29;20050;-85
2022/03/27 09:57:43;;;;;;;13.68;3.35;;;11.40;97.70;;;;;;4909691;29;20564;-85
2022/03/27 10:00:13;;;;;;;15.97;4.10;;;11.50;97.30;;;;;;4926237;29;20055;-86
2022/03/27 10:02:40;;;;;;;19.15;3.22;;;11.60;95.70;;;;;;4927859;29;20070;-85
2022/03/27 10:05:14;;;;;;;17.45;4.03;;;11.60;94.70;;;;;;4897415;29;20074;-85
2022/03/27 10:07:44;;;;;;;14.40;3.22;;;11.70;94.00;;;;;;4911601;29;20079;-85
2022/03/27 10:10:12;;;;;;;14.50;3.65;;;11.80;92.90;;;;;;4925524;29;20540;-85
2022/03/27 10:12:39;;;;;;;12.63;3.58;;;11.90;92.20;;;;;;4893975;29;20114;-85
2022/03/27 10:15:11;;;;;;;15.43;3.53;;;11.90;91.20;;;;;;4910913;29;20408;-85
2022/03/27 10:17:39;;;;;;;18.05;3.80;;;12.10;90.40;;;;;;4908721;29;20040;-86
2022/03/27 10:20:09;;;;;;;17.17;3.97;;;12.20;90.20;;;;;;4930185;29;20071;-85
2022/03/27 10:22:42;;;;;;;15.20;3.33;;;12.30;87.70;;;;;;4893587;29;20666;-85
2022/03/27 10:25:10;;;;;;;17.25;3.38;;;12.30;84.30;;;;;;4910972;29;20050;-85
2022/03/27 10:27:37;;;;;;;19.02;3.42;;;12.40;85.10;;;;;;4897171;29;20047;-85
2022/03/27 10:30:05;;;;;;;17.30;3.28;;;12.40;83.90;;;;;;4892580;29;20561;-86
2022/03/27 10:32:32;;;;;;;11.68;3.17;;;12.50;84.20;;;;;;4879527;29;20185;-86
2022/03/27 10:35:34;;;;;;;13.25;2.78;;;12.60;82.20;;;;;;4908156;29;21047;-85
2022/03/27 10:38:17;;;;;;;10.82;2.90;;;12.70;79.60;;;;;;4866986;29;20036;-86
2022/03/27 10:41:09;;;;;;;11.02;2.83;;;12.90;80.20;;;;;;4929339;29;20050;-86
2022/03/27 10:43:53;;;;;;;14.73;3.00;;;13.00;77.30;;;;;;4910720;29;20043;-86
2022/03/27 10:46:31;;;;;;;13.13;3.17;;;13.10;76.40;;;;;;4911747;29;20035;-86
2022/03/27 10:49:15;;;;;;;14.63;3.30;;;13.20;75.90;;;;;;4929926;29;20122;-86
2022/03/27 10:51:46;;;;;;;13.23;2.55;;;13.30;73.90;;;;;;4895972;29;20519;-86
2022/03/27 10:54:19;;;;;;;10.77;2.70;;;13.40;72.70;;;;;;4913833;29;20095;-86
2022/03/27 10:56:54;;;;;;;9.40;2.35;;;13.40;69.50;;;;;;4908643;29;20523;-86
2022/03/27 10:59:25;;;;;;;10.48;2.25;;;13.50;71.30;;;;;;4925143;29;20657;-86
2022/03/27 11:01:59;;;;;;;9.73;2.60;;;13.60;69.80;;;;;;4916777;29;20489;-86
2022/03/27 11:04:41;;;;;;;18.23;3.20;;;13.70;67.30;;;;;;4900172;29;20564;-86
2022/03/27 11:07:16;;;;;;;13.73;2.28;;;13.70;66.40;;;;;;4909212;29;20064;-86
2022/03/27 11:09:47;;;;;;;16.42;2.83;;;13.80;66.30;;;;;;4896776;29;20039;-86
2022/03/27 11:12:24;;;;;;;12.68;2.85;;;13.70;65.80;;;;;;4906971;29;20397;-86
2022/03/27 11:14:57;;;;;;;13.73;2.92;;;13.80;64.80;;;;;;4907019;29;20040;-86
2022/03/27 11:17:43;;;;;;;13.25;2.85;;;13.90;66.00;;;;;;4892695;29;20047;-86
2022/03/27 11:20:31;;;;;;;10.73;2.42;;;14.10;61.80;;;;;;4895730;29;20048;-86
2022/03/27 11:22:59;;;;;;;12.82;2.85;;;14.20;61.30;;;;;;4909372;29;20067;-86
2022/03/27 11:25:27;;;;;;;12.82;2.88;;;14.30;61.20;;;;;;4907984;29;20118;-86
2022/03/27 11:28:02;;;;;;;13.35;2.60;;;14.40;59.20;;;;;;4896933;29;20043;-86
2022/03/27 11:30:28;;;;;;;10.75;2.17;;;14.40;58.60;;;;;;4909694;29;20159;-86
2022/03/27 11:33:13;;;;;;;13.43;2.45;;;14.50;58.20;;;;;;4894092;29;20055;-86
2022/03/27 11:36:01;;;;;;;12.77;2.30;;;14.60;55.60;;;;;;4913546;29;20127;-86
2022/03/27 11:39:01;;;;;;;12.30;2.33;;;14.60;57.00;;;;;;4910248;29;20127;-86
2022/03/27 11:41:42;;;;;;;9.05;1.95;;;14.90;57.80;;;;;;4910427;29;20048;-86
2022/03/27 11:44:17;;;;;;;11.13;2.33;;;15.00;54.10;;;;;;4911241;29;20579;-85
2022/03/27 11:46:54;;;;;;;9.73;2.60;;;15.10;53.80;;;;;;4910361;29;20036;-85
2022/03/27 11:49:35;;;;;;;12.80;2.55;;;15.20;54.40;;;;;;4911194;29;20519;-85
2022/03/27 11:52:17;;;;;;;10.70;2.85;;;15.40;53.90;;;;;;4891480;29;20147;-85
2022/03/27 11:54:43;;;;;;;11.40;2.13;;;15.50;52.30;;;;;;4912387;29;20055;-85
2022/03/27 11:57:10;;;;;;;13.00;2.13;;;15.70;52.60;;;;;;4895152;29;20048;-85
2022/03/27 11:59:53;;;;;;;9.73;2.22;;;15.80;52.90;;;;;;4912212;29;20046;-85
2022/03/27 12:02:38;;;;;;;9.98;1.80;;;16.00;50.80;;;;;;4866465;29;20048;-85
2022/03/27 12:05:10;;;;;;;9.27;2.30;;;16.00;51.10;;;;;;4896243;29;20110;-85
2022/03/27 12:07:56;;;;;;;10.57;2.20;;;16.20;50.30;;;;;;4912304;29;20055;-86
2022/03/27 12:10:37;;;;;;;10.15;2.00;;;16.30;49.90;;;;;;4912356;29;20090;-85
2022/03/27 12:13:14;;;;;;;9.75;1.90;;;16.50;49.50;;;;;;4897318;29;20504;-86
2022/03/27 12:15:53;;;;;;;12.70;2.20;;;16.50;49.40;;;;;;4883052;29;20052;-85
2022/03/27 12:18:31;;;;;;;9.80;2.25;;;16.60;47.50;;;;;;4926405;29;20786;-86
2022/03/27 12:20:59;;;;;;;11.75;2.40;;;16.60;48.50;;;;;;4891816;29;20151;-85
2022/03/27 12:23:27;;;;;;;11.73;2.40;;;16.70;47.90;;;;;;4912457;29;20036;-85
2022/03/27 12:26:04;;;;;;;10.93;2.58;;;16.80;47.90;;;;;;4914369;29;20107;-85
2022/03/27 12:31:24;;;;;;;10.63;2.40;;;17.10;47.30;;;;;;4910920;29;20048;-86
2022/03/27 12:33:51;;;;;;;11.48;2.40;;;17.30;47.40;;;;;;4915134;29;20123;-85
2022/03/27 12:36:17;;;;;;;8.13;1.98;;;17.50;46.00;;;;;;4916589;29;20044;-85
2022/03/27 12:38:43;;;;;;;11.13;2.38;;;17.60;44.40;;;;;;4901729;29;20055;-85
2022/03/27 12:41:11;;;;;;;9.63;2.00;;;17.80;44.50;;;;;;4914815;29;20042;-87
2022/03/27 12:43:42;;;;;;;11.55;1.90;;;18.10;45.00;;;;;;4898399;29;20044;-86
2022/03/27 12:46:19;;;;;;;9.95;1.73;;;18.60;43.90;;;;;;4914167;29;20036;-86
2022/03/27 12:48:59;;;;;;;9.77;1.92;;;19.10;42.40;;;;;;4906221;29;20506;-86
2022/03/27 12:51:25;;;;;;;12.65;2.28;;;19.60;40.80;;;;;;4915181;29;20036;-86
2022/03/27 12:54:05;;;;;;;8.65;2.15;;;20.20;40.50;;;;;;4899527;29;20056;-86
2022/03/27 12:56:32;;;;;;;10.65;1.90;;;20.70;39.60;;;;;;4890479;29;20726;-87
2022/03/27 12:58:58;;;;;;;9.85;2.10;;;21.20;38.60;;;;;;4911489;29;20112;-85
2022/03/27 13:01:24;;;;;;;7.57;1.90;;;21.60;38.20;;;;;;4893970;29;20484;-86
2022/03/27 13:04:00;;;;;;;9.90;1.85;;;21.90;37.20;;;;;;4914058;29;20095;-86